ADDS TAF Board (Experimental) INFO Settings
IDs: Format: Expanded Condensed

KBOS - Boston/Logan Intl, MA, US

Issued at 1508 UTC 29 Sep 2016
Updated at 1659 UTC 29 Sep 2016
Time1654Z 29/17Z 29/18Z 29/19Z 29/20Z 29/21Z 29/22Z 29/23Z 30/00Z 30/01Z 30/02Z 30/03Z 30/04Z 30/05Z
Type OBS PRVL PRVL PRVL PRVL PRVL PRVL PRVL PRVL PRVL PRVL PRVL PRVL PRVL
VIS 10 >6 >6 >6 >6 >6 >6 >6 >6 >6 >6 >6 >6 >6
CIG 27 20 20 20 20 20 20 20 20 20 20 20 20 20
Cover OVC BKN BKN BKN BKN BKN BKN BKN BKN BKN BKN BKN BKN BKN
FltCat MVFR MVFR MVFR MVFR MVFR MVFR MVFR MVFR MVFR MVFR MVFR MVFR MVFR MVFR
WX -- -- -- -- -- -- -- -- -- -- -- -- -- --
WDir 40 40 40 40 40 40 40 40 40 40 40 40 40 40
WSpd 15 14 14 14 14 14 14 14 14 14 14 14 14 14
WGst 21 22 22 22 22 22 22 22 22 22 22 22 22 22
R04/22
XWnd -5 -5 -5 -5 -5 -5 -5 -5 -5 -5 -5 -5 -5 -5
XGst -7 -8 -8 -8 -8 -8 -8 -8 -8 -8 -8 -8 -8 -8
HWnd 14 13 13 13 13 13 13 13 13 13 13 13 13 13
HGst 20 21 21 21 21 21 21 21 21 21 21 21 21 21
R09/27
XWnd 9 8 8 8 8 8 8 8 8 8 8 8 8 8
XGst 13 13 13 13 13 13 13 13 13 13 13 13 13 13
HWnd 12 11 11 11 11 11 11 11 11 11 11 11 11 11
HGst 17 18 18 18 18 18 18 18 18 18 18 18 18 18
R14/32
XWnd 15 14 14 14 14 14 14 14 14 14 14 14 14 14
XGst 21 22 22 22 22 22 22 22 22 22 22 22 22 22
HWnd 1 1 1 1 1 1 1 1 1 1 1 1 1 1
HGst 2 2 2 2 2 2 2 2 2 2 2 2 2 2
R15/33
XWnd 15 14 14 14 14 14 14 14 14 14 14 14 14 14
XGst 21 22 22 22 22 22 22 22 22 22 22 22 22 22
HWnd -1 -1 -1 -1 -1 -1 -1 -1 -1 -1 -1 -1 -1 -1
HGst -2 -2 -2 -2 -2 -2 -2 -2 -2 -2 -2 -2 -2 -2

Raw TAF
KBOS 291508Z 2915/3018 04014G22KT P6SM BKN020
  FM300800 06014KT P6SM BKN030
  FM301000 06014KT P6SM BKN035
  FM301100 06013KT P6SM VCSH BKN040
  FM301200 06013KT 5SM BR VCSH OVC050
  FM301400 06013KT 6SM BR VCSH OVC060
  FM301600 06013KT P6SM VCSH OVC060


Raw METAR
KBOS 291654Z 04015G21KT 10SM OVC027 15/09 A3050 RMK AO2 SLP327 T01500089
KBOS 291554Z 05017G22KT 10SM BKN023 OVC028 14/09 A3049 RMK AO2 SLP325 T01440094
KBOS 291454Z 04014G22KT 10SM BKN020 OVC026 14/10 A3048 RMK AO2 SLP321 T01390100 51014 $
KBOS 291354Z 04013G21KT 10SM OVC024 13/09 A3048 RMK AO2 SLP320 T01330094 $

METAR Board
Radar Display
Forecast Discussion

TAF Board Legend

Potential Impact
Threat None Slight Moderate High
Visibility (sm) ≥5.1 5.1>X≥3 3>X≥1 <1
Ceiling (100 ft) ≥30.1 30.1>X≥10 10>X≥5 <5
Wind Speed (kt) <10 10≤X<20 20≤X<30 ≥30
Wind Gust (kt) <15 15≤X<25 25≤X<35 ≥35
Weather No Wx Reported VCTS,-TS,-FZRA,SN TS,FZRA +TS,+FZRA,+SN